sensor_id;sensor_type;location;lat;lon;timestamp;temperature;humidity
1524;DHT22;755;53.658;10.118;2022-08-01T00:08:40;18.30;99.90
1524;DHT22;755;53.658;10.118;2022-08-01T00:18:43;18.30;99.90
1524;DHT22;755;53.658;10.118;2022-08-01T00:29:03;18.30;99.90
1524;DHT22;755;53.658;10.118;2022-08-01T00:39:06;18.30;99.90
1524;DHT22;755;53.658;10.118;2022-08-01T00:49:10;18.30;99.90
1524;DHT22;755;53.658;10.118;2022-08-01T00:59:14;18.20;99.90
1524;DHT22;755;53.658;10.118;2022-08-01T01:09:31;18.20;99.90
1524;DHT22;755;53.658;10.118;2022-08-01T01:19:44;18.10;99.90
1524;DHT22;755;53.658;10.118;2022-08-01T01:29:53;18.20;99.90
1524;DHT22;755;53.658;10.118;2022-08-01T01:39:58;18.20;99.90
1524;DHT22;755;53.658;10.118;2022-08-01T01:50:04;18.20;99.90
1524;DHT22;755;53.658;10.118;2022-08-01T02:00:37;18.10;99.90
1524;DHT22;755;53.658;10.118;2022-08-01T02:10:42;18.10;99.90
1524;DHT22;755;53.658;10.118;2022-08-01T02:21:09;18.00;99.90
1524;DHT22;755;53.658;10.118;2022-08-01T02:31:18;17.90;99.90
1524;DHT22;755;53.658;10.118;2022-08-01T02:41:22;17.90;99.90
1524;DHT22;755;53.658;10.118;2022-08-01T02:51:28;17.80;99.90
1524;DHT22;755;53.658;10.118;2022-08-01T03:01:34;17.80;99.90
1524;DHT22;755;53.658;10.118;2022-08-01T03:11:42;17.90;99.90
1524;DHT22;755;53.658;10.118;2022-08-01T03:21:47;17.90;99.90
1524;DHT22;755;53.658;10.118;2022-08-01T03:31:52;17.90;99.90
1524;DHT22;755;53.658;10.118;2022-08-01T03:41:59;17.90;99.90
1524;DHT22;755;53.658;10.118;2022-08-01T03:52:09;17.90;99.90
1524;DHT22;755;53.658;10.118;2022-08-01T04:02:30;17.80;99.90
1524;DHT22;755;53.658;10.118;2022-08-01T04:12:46;17.80;99.90
1524;DHT22;755;53.658;10.118;2022-08-01T04:22:49;17.80;99.90
1524;DHT22;755;53.658;10.118;2022-08-01T04:33:35;17.90;99.90
1524;DHT22;755;53.658;10.118;2022-08-01T04:43:53;17.90;99.90
1524;DHT22;755;53.658;10.118;2022-08-01T04:54:05;17.90;99.90
1524;DHT22;755;53.658;10.118;2022-08-01T05:04:19;18.00;99.90
1524;DHT22;755;53.658;10.118;2022-08-01T05:14:29;17.90;99.90
1524;DHT22;755;53.658;10.118;2022-08-01T05:24:35;17.80;99.90
1524;DHT22;755;53.658;10.118;2022-08-01T05:34:39;17.80;99.90
1524;DHT22;755;53.658;10.118;2022-08-01T05:44:42;18.00;99.90
1524;DHT22;755;53.658;10.118;2022-08-01T05:54:53;18.00;99.90
1524;DHT22;755;53.658;10.118;2022-08-01T06:04:56;18.00;99.90
1524;DHT22;755;53.658;10.118;2022-08-01T06:15:00;18.10;99.90
1524;DHT22;755;53.658;10.118;2022-08-01T06:25:03;17.90;99.90
1524;DHT22;755;53.658;10.118;2022-08-01T06:35:08;17.90;99.90
1524;DHT22;755;53.658;10.118;2022-08-01T06:45:15;18.00;99.90
1524;DHT22;755;53.658;10.118;2022-08-01T06:55:19;18.10;99.90
1524;DHT22;755;53.658;10.118;2022-08-01T07:05:23;18.10;99.90
1524;DHT22;755;53.658;10.118;2022-08-01T07:15:51;18.20;99.90
1524;DHT22;755;53.658;10.118;2022-08-01T07:25:55;17.90;99.90
1524;DHT22;755;53.658;10.118;2022-08-01T07:36:27;17.80;99.90
1524;DHT22;755;53.658;10.118;2022-08-01T07:46:30;17.80;99.90
1524;DHT22;755;53.658;10.118;2022-08-01T07:56:34;17.90;99.90
1524;DHT22;755;53.658;10.118;2022-08-01T08:06:55;17.90;99.90
1524;DHT22;755;53.658;10.118;2022-08-01T08:17:00;18.10;99.90
1524;DHT22;755;53.658;10.118;2022-08-01T08:27:03;18.40;99.90
1524;DHT22;755;53.658;10.118;2022-08-01T08:37:10;18.30;99.90
1524;DHT22;755;53.658;10.118;2022-08-01T08:47:17;18.30;99.90
1524;DHT22;755;53.658;10.118;2022-08-01T08:57:38;17.90;99.90
1524;DHT22;755;53.658;10.118;2022-08-01T09:07:45;18.10;99.90
1524;DHT22;755;53.658;10.118;2022-08-01T09:18:10;19.70;99.90
1524;DHT22;755;53.658;10.118;2022-08-01T09:28:43;19.80;99.90
1524;DHT22;755;53.658;10.118;2022-08-01T09:38:52;20.60;1.00
1524;DHT22;755;53.658;10.118;2022-08-01T09:49:10;20.30;99.90
1524;DHT22;755;53.658;10.118;2022-08-01T09:59:13;21.70;1.00
1524;DHT22;755;53.658;10.118;2022-08-01T10:09:27;22.40;97.50
1524;DHT22;755;53.658;10.118;2022-08-01T10:19:29;22.40;90.20
1524;DHT22;755;53.658;10.118;2022-08-01T10:29:40;22.50;1.00
1524;DHT22;755;53.658;10.118;2022-08-01T10:39:43;23.00;99.90
1524;DHT22;755;53.658;10.118;2022-08-01T10:49:51;22.40;99.90
1524;DHT22;755;53.658;10.118;2022-08-01T10:59:59;22.90;99.90
1524;DHT22;755;53.658;10.118;2022-08-01T11:10:08;22.70;99.90
1524;DHT22;755;53.658;10.118;2022-08-01T11:20:12;22.90;1.00
1524;DHT22;755;53.658;10.118;2022-08-01T11:30:26;22.90;1.00
1524;DHT22;755;53.658;10.118;2022-08-01T11:40:28;22.50;99.90
1524;DHT22;755;53.658;10.118;2022-08-01T11:50:35;22.50;99.90
1524;DHT22;755;53.658;10.118;2022-08-01T12:00:37;22.90;99.90
1524;DHT22;755;53.658;10.118;2022-08-01T12:10:40;23.00;99.90
1524;DHT22;755;53.658;10.118;2022-08-01T12:20:51;23.00;99.90
1524;DHT22;755;53.658;10.118;2022-08-01T12:30:54;22.20;99.90
1524;DHT22;755;53.658;10.118;2022-08-01T12:40:56;22.70;1.00
1524;DHT22;755;53.658;10.118;2022-08-01T12:51:00;23.10;99.90
1524;DHT22;755;53.658;10.118;2022-08-01T13:01:05;23.00;99.90
1524;DHT22;755;53.658;10.118;2022-08-01T13:11:10;23.40;99.90
1524;DHT22;755;53.658;10.118;2022-08-01T13:21:15;23.10;99.90
1524;DHT22;755;53.658;10.118;2022-08-01T13:31:19;23.50;3.50
1524;DHT22;755;53.658;10.118;2022-08-01T13:41:21;23.00;1.00
1524;DHT22;755;53.658;10.118;2022-08-01T13:51:24;23.00;1.00
1524;DHT22;755;53.658;10.118;2022-08-01T14:01:26;23.20;1.00
1524;DHT22;755;53.658;10.118;2022-08-01T14:11:30;23.60;1.00
1524;DHT22;755;53.658;10.118;2022-08-01T14:21:32;23.20;1.00
1524;DHT22;755;53.658;10.118;2022-08-01T14:31:35;23.00;1.00
1524;DHT22;755;53.658;10.118;2022-08-01T14:41:37;23.00;1.00
1524;DHT22;755;53.658;10.118;2022-08-01T14:51:41;22.20;1.00
1524;DHT22;755;53.658;10.118;2022-08-01T15:01:42;21.60;99.90
1524;DHT22;755;53.658;10.118;2022-08-01T15:11:46;21.30;99.90
1524;DHT22;755;53.658;10.118;2022-08-01T15:21:48;21.00;99.90
1524;DHT22;755;53.658;10.118;2022-08-01T15:31:51;20.90;99.90
1524;DHT22;755;53.658;10.118;2022-08-01T15:41:53;20.70;99.90
1524;DHT22;755;53.658;10.118;2022-08-01T15:51:57;20.70;99.90
1524;DHT22;755;53.658;10.118;2022-08-01T16:01:59;20.60;99.90
1524;DHT22;755;53.658;10.118;2022-08-01T16:12:02;20.40;99.90
1524;DHT22;755;53.658;10.118;2022-08-01T16:22:04;20.30;99.90
1524;DHT22;755;53.658;10.118;2022-08-01T16:32:08;20.20;99.90
1524;DHT22;755;53.658;10.118;2022-08-01T16:42:10;20.10;99.90
1524;DHT22;755;53.658;10.118;2022-08-01T16:52:13;19.90;99.90
1524;DHT22;755;53.658;10.118;2022-08-01T17:02:15;19.70;99.90
1524;DHT22;755;53.658;10.118;2022-08-01T17:12:19;19.60;99.90
1524;DHT22;755;53.658;10.118;2022-08-01T17:22:21;19.40;99.90
1524;DHT22;755;53.658;10.118;2022-08-01T17:32:24;19.10;99.90
1524;DHT22;755;53.658;10.118;2022-08-01T17:42:26;19.00;1.00
1524;DHT22;755;53.658;10.118;2022-08-01T17:52:32;18.70;99.90
1524;DHT22;755;53.658;10.118;2022-08-01T18:02:34;18.60;1.00
1524;DHT22;755;53.658;10.118;2022-08-01T18:12:38;18.40;1.00
1524;DHT22;755;53.658;10.118;2022-08-01T18:22:40;18.20;1.00
1524;DHT22;755;53.658;10.118;2022-08-01T18:32:43;18.00;1.00
1524;DHT22;755;53.658;10.118;2022-08-01T18:42:45;17.90;1.00
1524;DHT22;755;53.658;10.118;2022-08-01T18:52:49;17.70;56.00
1524;DHT22;755;53.658;10.118;2022-08-01T19:02:51;17.30;1.00
1524;DHT22;755;53.658;10.118;2022-08-01T19:12:54;17.20;77.10
1524;DHT22;755;53.658;10.118;2022-08-01T19:22:57;17.00;99.90
1524;DHT22;755;53.658;10.118;2022-08-01T19:33:00;16.80;1.00
1524;DHT22;755;53.658;10.118;2022-08-01T19:43:02;16.60;1.00
1524;DHT22;755;53.658;10.118;2022-08-01T19:53:10;16.50;1.00
1524;DHT22;755;53.658;10.118;2022-08-01T20:03:14;16.20;1.00
1524;DHT22;755;53.658;10.118;2022-08-01T20:13:20;16.00;99.90
1524;DHT22;755;53.658;10.118;2022-08-01T20:23:23;15.90;1.00
1524;DHT22;755;53.658;10.118;2022-08-01T20:33:28;15.80;1.00
1524;DHT22;755;53.658;10.118;2022-08-01T20:43:31;15.50;1.00
1524;DHT22;755;53.658;10.118;2022-08-01T20:53:36;15.40;99.90
1524;DHT22;755;53.658;10.118;2022-08-01T21:03:54;15.20;1.00
1524;DHT22;755;53.658;10.118;2022-08-01T21:14:00;15.00;1.00
1524;DHT22;755;53.658;10.118;2022-08-01T21:24:11;14.90;99.90
1524;DHT22;755;53.658;10.118;2022-08-01T21:34:17;14.70;1.00
1524;DHT22;755;53.658;10.118;2022-08-01T21:44:23;14.60;1.00
1524;DHT22;755;53.658;10.118;2022-08-01T21:54:28;14.50;99.90
1524;DHT22;755;53.658;10.118;2022-08-01T22:04:41;14.40;99.90
1524;DHT22;755;53.658;10.118;2022-08-01T22:14:48;14.00;99.90
1524;DHT22;755;53.658;10.118;2022-08-01T22:24:51;13.80;1.00
1524;DHT22;755;53.658;10.118;2022-08-01T22:34:55;13.80;99.90
1524;DHT22;755;53.658;10.118;2022-08-01T22:45:03;13.70;1.00
1524;DHT22;755;53.658;10.118;2022-08-01T22:55:08;13.30;44.70
1524;DHT22;755;53.658;10.118;2022-08-01T23:05:12;13.20;99.90
1524;DHT22;755;53.658;10.118;2022-08-01T23:15:18;13.00;99.90
1524;DHT22;755;53.658;10.118;2022-08-01T23:25:22;12.80;99.90
1524;DHT22;755;53.658;10.118;2022-08-01T23:35:26;12.70;99.90
1524;DHT22;755;53.658;10.118;2022-08-01T23:45:28;12.80;99.90
1524;DHT22;755;53.658;10.118;2022-08-01T23:55:32;12.60;99.90
